sensor_id;sensor_type;location;lat;lon;timestamp;P1;durP1;ratioP1;P2;durP2;ratioP2
71629;SDS011;59479;51.902;8.212;2023-07-20T00:01:09;4.13;;;1.93;;
71629;SDS011;59479;51.902;8.212;2023-07-20T00:03:34;3.33;;;1.80;;
71629;SDS011;59479;51.902;8.212;2023-07-20T00:05:59;4.85;;;2.20;;
71629;SDS011;59479;51.902;8.212;2023-07-20T00:08:25;4.00;;;2.03;;
71629;SDS011;59479;51.902;8.212;2023-07-20T00:10:50;6.70;;;1.97;;
71629;SDS011;59479;51.902;8.212;2023-07-20T00:13:15;4.20;;;2.13;;
71629;SDS011;59479;51.902;8.212;2023-07-20T00:15:41;5.20;;;2.13;;
71629;SDS011;59479;51.902;8.212;2023-07-20T00:18:07;4.18;;;2.35;;
71629;SDS011;59479;51.902;8.212;2023-07-20T00:20:32;3.90;;;2.40;;
71629;SDS011;59479;51.902;8.212;2023-07-20T00:22:57;5.00;;;2.20;;
71629;SDS011;59479;51.902;8.212;2023-07-20T00:25:23;3.90;;;2.17;;
71629;SDS011;59479;51.902;8.212;2023-07-20T00:27:49;3.40;;;1.73;;
71629;SDS011;59479;51.902;8.212;2023-07-20T00:30:15;3.60;;;2.00;;
71629;SDS011;59479;51.902;8.212;2023-07-20T00:32:42;4.10;;;2.30;;
71629;SDS011;59479;51.902;8.212;2023-07-20T00:35:08;4.20;;;2.30;;
71629;SDS011;59479;51.902;8.212;2023-07-20T00:37:34;4.03;;;2.22;;
71629;SDS011;59479;51.902;8.212;2023-07-20T00:39:59;4.00;;;1.97;;
71629;SDS011;59479;51.902;8.212;2023-07-20T00:42:26;3.97;;;1.95;;
71629;SDS011;59479;51.902;8.212;2023-07-20T00:44:51;5.18;;;2.33;;
71629;SDS011;59479;51.902;8.212;2023-07-20T00:47:16;3.93;;;2.00;;
71629;SDS011;59479;51.902;8.212;2023-07-20T00:49:42;3.83;;;2.05;;
71629;SDS011;59479;51.902;8.212;2023-07-20T00:52:08;4.13;;;1.80;;
71629;SDS011;59479;51.902;8.212;2023-07-20T00:54:36;4.72;;;2.38;;
71629;SDS011;59479;51.902;8.212;2023-07-20T00:57:02;4.35;;;2.33;;
71629;SDS011;59479;51.902;8.212;2023-07-20T00:59:27;6.47;;;2.42;;
71629;SDS011;59479;51.902;8.212;2023-07-20T01:01:53;4.60;;;2.00;;
71629;SDS011;59479;51.902;8.212;2023-07-20T01:04:19;5.00;;;2.28;;
71629;SDS011;59479;51.902;8.212;2023-07-20T01:06:53;6.37;;;2.87;;
71629;SDS011;59479;51.902;8.212;2023-07-20T01:09:31;5.43;;;3.00;;
71629;SDS011;59479;51.902;8.212;2023-07-20T01:15:11;5.78;;;2.72;;
71629;SDS011;59479;51.902;8.212;2023-07-20T01:17:37;4.40;;;2.57;;
71629;SDS011;59479;51.902;8.212;2023-07-20T01:20:02;4.57;;;2.40;;
71629;SDS011;59479;51.902;8.212;2023-07-20T01:25:16;6.88;;;2.90;;
71629;SDS011;59479;51.902;8.212;2023-07-20T01:33:19;9.35;;;4.07;;
71629;SDS011;59479;51.902;8.212;2023-07-20T01:35:48;11.18;;;4.57;;
71629;SDS011;59479;51.902;8.212;2023-07-20T01:38:19;13.20;;;4.95;;
71629;SDS011;59479;51.902;8.212;2023-07-20T01:40:46;11.57;;;4.70;;
71629;SDS011;59479;51.902;8.212;2023-07-20T01:43:11;9.20;;;4.50;;
71629;SDS011;59479;51.902;8.212;2023-07-20T01:45:37;12.70;;;5.38;;
71629;SDS011;59479;51.902;8.212;2023-07-20T01:48:03;11.97;;;5.20;;
71629;SDS011;59479;51.902;8.212;2023-07-20T01:50:29;12.43;;;4.88;;
71629;SDS011;59479;51.902;8.212;2023-07-20T01:52:54;13.13;;;5.30;;
71629;SDS011;59479;51.902;8.212;2023-07-20T01:55:20;14.33;;;5.30;;
71629;SDS011;59479;51.902;8.212;2023-07-20T01:57:45;11.40;;;5.50;;
71629;SDS011;59479;51.902;8.212;2023-07-20T02:00:10;11.33;;;4.13;;
71629;SDS011;59479;51.902;8.212;2023-07-20T02:02:37;10.93;;;4.68;;
71629;SDS011;59479;51.902;8.212;2023-07-20T02:05:02;9.73;;;4.33;;
71629;SDS011;59479;51.902;8.212;2023-07-20T02:07:27;7.87;;;3.90;;
71629;SDS011;59479;51.902;8.212;2023-07-20T02:09:53;7.70;;;3.83;;
71629;SDS011;59479;51.902;8.212;2023-07-20T02:12:18;6.65;;;3.15;;
71629;SDS011;59479;51.902;8.212;2023-07-20T02:14:43;6.37;;;3.37;;
71629;SDS011;59479;51.902;8.212;2023-07-20T02:17:09;9.23;;;3.60;;
71629;SDS011;59479;51.902;8.212;2023-07-20T02:19:36;7.78;;;3.70;;
71629;SDS011;59479;51.902;8.212;2023-07-20T02:22:02;8.07;;;3.10;;
71629;SDS011;59479;51.902;8.212;2023-07-20T02:24:27;8.75;;;3.40;;
71629;SDS011;59479;51.902;8.212;2023-07-20T02:26:52;9.75;;;3.75;;
71629;SDS011;59479;51.902;8.212;2023-07-20T02:29:17;6.93;;;3.03;;
71629;SDS011;59479;51.902;8.212;2023-07-20T02:31:43;4.23;;;2.70;;
71629;SDS011;59479;51.902;8.212;2023-07-20T02:34:08;6.10;;;3.00;;
71629;SDS011;59479;51.902;8.212;2023-07-20T02:36:34;6.90;;;3.58;;
71629;SDS011;59479;51.902;8.212;2023-07-20T02:39:00;5.82;;;2.33;;
71629;SDS011;59479;51.902;8.212;2023-07-20T02:41:27;6.13;;;2.60;;
71629;SDS011;59479;51.902;8.212;2023-07-20T02:43:52;7.27;;;3.60;;
71629;SDS011;59479;51.902;8.212;2023-07-20T02:46:17;6.10;;;3.00;;
71629;SDS011;59479;51.902;8.212;2023-07-20T02:48:43;10.37;;;3.27;;
71629;SDS011;59479;51.902;8.212;2023-07-20T02:51:08;7.07;;;3.17;;
71629;SDS011;59479;51.902;8.212;2023-07-20T02:53:34;6.13;;;3.33;;
71629;SDS011;59479;51.902;8.212;2023-07-20T02:55:59;7.90;;;3.47;;
71629;SDS011;59479;51.902;8.212;2023-07-20T02:58:25;4.43;;;2.67;;
71629;SDS011;59479;51.902;8.212;2023-07-20T03:00:50;5.77;;;2.43;;
71629;SDS011;59479;51.902;8.212;2023-07-20T03:03:15;5.40;;;2.80;;
71629;SDS011;59479;51.902;8.212;2023-07-20T03:05:41;5.40;;;2.80;;
71629;SDS011;59479;51.902;8.212;2023-07-20T03:08:07;4.50;;;2.63;;
71629;SDS011;59479;51.902;8.212;2023-07-20T03:10:32;5.47;;;2.55;;
71629;SDS011;59479;51.902;8.212;2023-07-20T03:12:58;7.13;;;2.80;;
71629;SDS011;59479;51.902;8.212;2023-07-20T03:15:23;11.13;;;3.50;;
71629;SDS011;59479;51.902;8.212;2023-07-20T03:17:49;6.97;;;2.70;;
71629;SDS011;59479;51.902;8.212;2023-07-20T03:20:14;5.70;;;2.70;;
71629;SDS011;59479;51.902;8.212;2023-07-20T03:22:39;6.70;;;2.40;;
71629;SDS011;59479;51.902;8.212;2023-07-20T03:25:05;7.73;;;3.23;;
71629;SDS011;59479;51.902;8.212;2023-07-20T03:27:30;4.83;;;3.03;;
71629;SDS011;59479;51.902;8.212;2023-07-20T03:29:56;4.73;;;2.73;;
71629;SDS011;59479;51.902;8.212;2023-07-20T03:32:21;6.57;;;2.77;;
71629;SDS011;59479;51.902;8.212;2023-07-20T03:34:46;6.03;;;3.10;;
71629;SDS011;59479;51.902;8.212;2023-07-20T03:37:12;5.83;;;2.97;;
71629;SDS011;59479;51.902;8.212;2023-07-20T03:39:38;5.10;;;2.80;;
71629;SDS011;59479;51.902;8.212;2023-07-20T03:42:03;4.60;;;2.58;;
71629;SDS011;59479;51.902;8.212;2023-07-20T03:44:30;6.23;;;2.97;;
71629;SDS011;59479;51.902;8.212;2023-07-20T03:46:55;5.82;;;2.55;;
71629;SDS011;59479;51.902;8.212;2023-07-20T03:49:20;4.93;;;2.80;;
71629;SDS011;59479;51.902;8.212;2023-07-20T03:51:46;5.50;;;3.33;;
71629;SDS011;59479;51.902;8.212;2023-07-20T03:54:11;4.77;;;2.77;;
71629;SDS011;59479;51.902;8.212;2023-07-20T03:56:36;8.00;;;3.17;;
71629;SDS011;59479;51.902;8.212;2023-07-20T03:59:02;4.67;;;2.67;;
71629;SDS011;59479;51.902;8.212;2023-07-20T04:01:27;5.35;;;3.15;;
71629;SDS011;59479;51.902;8.212;2023-07-20T04:03:53;5.47;;;3.73;;
71629;SDS011;59479;51.902;8.212;2023-07-20T04:06:18;6.53;;;3.13;;
71629;SDS011;59479;51.902;8.212;2023-07-20T04:08:44;8.00;;;2.90;;
71629;SDS011;59479;51.902;8.212;2023-07-20T04:11:12;5.38;;;3.00;;
71629;SDS011;59479;51.902;8.212;2023-07-20T04:13:37;5.23;;;3.27;;
71629;SDS011;59479;51.902;8.212;2023-07-20T04:16:03;5.43;;;2.63;;
71629;SDS011;59479;51.902;8.212;2023-07-20T04:18:28;4.80;;;2.35;;
71629;SDS011;59479;51.902;8.212;2023-07-20T04:20:54;5.80;;;2.90;;
71629;SDS011;59479;51.902;8.212;2023-07-20T04:23:19;4.83;;;2.30;;
71629;SDS011;59479;51.902;8.212;2023-07-20T04:25:44;4.70;;;2.27;;
71629;SDS011;59479;51.902;8.212;2023-07-20T04:28:10;4.00;;;2.57;;
71629;SDS011;59479;51.902;8.212;2023-07-20T04:30:36;4.50;;;2.70;;
71629;SDS011;59479;51.902;8.212;2023-07-20T04:33:07;3.80;;;1.90;;
71629;SDS011;59479;51.902;8.212;2023-07-20T04:35:46;4.40;;;2.10;;
71629;SDS011;59479;51.902;8.212;2023-07-20T04:38:15;3.58;;;2.00;;
71629;SDS011;59479;51.902;8.212;2023-07-20T04:40:42;3.25;;;1.80;;
71629;SDS011;59479;51.902;8.212;2023-07-20T04:43:08;5.68;;;2.20;;
71629;SDS011;59479;51.902;8.212;2023-07-20T04:45:34;3.63;;;2.03;;
71629;SDS011;59479;51.902;8.212;2023-07-20T04:47:59;4.37;;;2.07;;
71629;SDS011;59479;51.902;8.212;2023-07-20T04:50:24;3.77;;;1.93;;
71629;SDS011;59479;51.902;8.212;2023-07-20T04:52:50;3.60;;;1.93;;
71629;SDS011;59479;51.902;8.212;2023-07-20T04:55:15;5.35;;;1.92;;
71629;SDS011;59479;51.902;8.212;2023-07-20T04:57:41;3.90;;;1.87;;
71629;SDS011;59479;51.902;8.212;2023-07-20T05:00:06;3.83;;;2.20;;
71629;SDS011;59479;51.902;8.212;2023-07-20T05:02:32;4.67;;;2.17;;
71629;SDS011;59479;51.902;8.212;2023-07-20T05:04:57;3.90;;;1.60;;
71629;SDS011;59479;51.902;8.212;2023-07-20T05:07:22;5.30;;;1.75;;
71629;SDS011;59479;51.902;8.212;2023-07-20T05:09:48;3.70;;;2.07;;
71629;SDS011;59479;51.902;8.212;2023-07-20T05:12:13;3.40;;;1.80;;
71629;SDS011;59479;51.902;8.212;2023-07-20T05:14:38;6.40;;;1.80;;
71629;SDS011;59479;51.902;8.212;2023-07-20T05:17:04;3.20;;;1.40;;
71629;SDS011;59479;51.902;8.212;2023-07-20T05:19:29;4.37;;;1.60;;
71629;SDS011;59479;51.902;8.212;2023-07-20T05:21:55;3.80;;;1.95;;
71629;SDS011;59479;51.902;8.212;2023-07-20T05:24:20;3.50;;;1.87;;
71629;SDS011;59479;51.902;8.212;2023-07-20T05:26:47;3.57;;;1.70;;
71629;SDS011;59479;51.902;8.212;2023-07-20T05:29:13;3.10;;;1.80;;
71629;SDS011;59479;51.902;8.212;2023-07-20T05:31:38;4.33;;;2.10;;
71629;SDS011;59479;51.902;8.212;2023-07-20T05:34:04;3.70;;;1.60;;
71629;SDS011;59479;51.902;8.212;2023-07-20T05:36:29;3.58;;;1.80;;
71629;SDS011;59479;51.902;8.212;2023-07-20T05:38:56;3.90;;;1.65;;
71629;SDS011;59479;51.902;8.212;2023-07-20T05:41:21;3.30;;;1.58;;
71629;SDS011;59479;51.902;8.212;2023-07-20T05:43:47;5.05;;;1.85;;
71629;SDS011;59479;51.902;8.212;2023-07-20T05:46:13;3.47;;;1.77;;
71629;SDS011;59479;51.902;8.212;2023-07-20T05:48:38;3.22;;;1.67;;
71629;SDS011;59479;51.902;8.212;2023-07-20T05:51:03;3.37;;;1.60;;
71629;SDS011;59479;51.902;8.212;2023-07-20T05:53:29;3.77;;;1.80;;
71629;SDS011;59479;51.902;8.212;2023-07-20T05:55:54;3.70;;;1.60;;
71629;SDS011;59479;51.902;8.212;2023-07-20T05:58:20;3.53;;;1.57;;
71629;SDS011;59479;51.902;8.212;2023-07-20T06:00:48;3.75;;;1.73;;
71629;SDS011;59479;51.902;8.212;2023-07-20T06:03:14;3.87;;;2.40;;
71629;SDS011;59479;51.902;8.212;2023-07-20T06:05:41;4.50;;;2.00;;
71629;SDS011;59479;51.902;8.212;2023-07-20T06:08:07;3.38;;;1.60;;
71629;SDS011;59479;51.902;8.212;2023-07-20T06:10:32;4.57;;;1.43;;
71629;SDS011;59479;51.902;8.212;2023-07-20T06:12:57;2.77;;;1.17;;
71629;SDS011;59479;51.902;8.212;2023-07-20T06:15:26;2.70;;;1.20;;
71629;SDS011;59479;51.902;8.212;2023-07-20T06:17:54;2.92;;;1.17;;
71629;SDS011;59479;51.902;8.212;2023-07-20T06:20:21;3.13;;;1.27;;
71629;SDS011;59479;51.902;8.212;2023-07-20T06:22:47;2.73;;;1.30;;
71629;SDS011;59479;51.902;8.212;2023-07-20T06:25:12;2.67;;;1.10;;
71629;SDS011;59479;51.902;8.212;2023-07-20T06:27:38;3.70;;;1.50;;
71629;SDS011;59479;51.902;8.212;2023-07-20T06:30:03;2.83;;;1.60;;
71629;SDS011;59479;51.902;8.212;2023-07-20T06:32:29;2.90;;;1.48;;
71629;SDS011;59479;51.902;8.212;2023-07-20T06:34:54;3.50;;;1.70;;
71629;SDS011;59479;51.902;8.212;2023-07-20T06:37:19;2.87;;;1.47;;
71629;SDS011;59479;51.902;8.212;2023-07-20T06:39:45;4.80;;;1.40;;
71629;SDS011;59479;51.902;8.212;2023-07-20T06:42:11;4.00;;;1.40;;
71629;SDS011;59479;51.902;8.212;2023-07-20T06:44:36;2.80;;;1.30;;
71629;SDS011;59479;51.902;8.212;2023-07-20T06:47:02;4.20;;;1.70;;
71629;SDS011;59479;51.902;8.212;2023-07-20T06:49:27;3.00;;;1.45;;
71629;SDS011;59479;51.902;8.212;2023-07-20T06:51:53;2.83;;;1.20;;
71629;SDS011;59479;51.902;8.212;2023-07-20T06:54:18;3.00;;;1.50;;
71629;SDS011;59479;51.902;8.212;2023-07-20T06:56:44;3.00;;;1.35;;
71629;SDS011;59479;51.902;8.212;2023-07-20T06:59:09;2.70;;;1.20;;
71629;SDS011;59479;51.902;8.212;2023-07-20T07:01:34;2.63;;;1.20;;
71629;SDS011;59479;51.902;8.212;2023-07-20T07:04:00;3.70;;;2.00;;
71629;SDS011;59479;51.902;8.212;2023-07-20T07:06:25;3.60;;;1.43;;
71629;SDS011;59479;51.902;8.212;2023-07-20T07:08:52;2.67;;;1.20;;
71629;SDS011;59479;51.902;8.212;2023-07-20T07:11:18;3.07;;;1.30;;
71629;SDS011;59479;51.902;8.212;2023-07-20T07:13:43;2.60;;;1.20;;
71629;SDS011;59479;51.902;8.212;2023-07-20T07:16:11;2.90;;;1.23;;
71629;SDS011;59479;51.902;8.212;2023-07-20T07:18:36;3.73;;;1.63;;
71629;SDS011;59479;51.902;8.212;2023-07-20T07:21:02;2.80;;;1.10;;
71629;SDS011;59479;51.902;8.212;2023-07-20T07:23:27;2.90;;;1.37;;
71629;SDS011;59479;51.902;8.212;2023-07-20T07:25:52;3.43;;;1.30;;
71629;SDS011;59479;51.902;8.212;2023-07-20T07:28:18;2.50;;;0.95;;
71629;SDS011;59479;51.902;8.212;2023-07-20T07:30:43;2.60;;;1.00;;
71629;SDS011;59479;51.902;8.212;2023-07-20T07:33:08;2.53;;;1.03;;
71629;SDS011;59479;51.902;8.212;2023-07-20T07:35:35;2.90;;;1.20;;
71629;SDS011;59479;51.902;8.212;2023-07-20T07:38:00;4.30;;;1.07;;
71629;SDS011;59479;51.902;8.212;2023-07-20T07:40:26;2.77;;;1.43;;
71629;SDS011;59479;51.902;8.212;2023-07-20T07:42:51;2.40;;;1.00;;
71629;SDS011;59479;51.902;8.212;2023-07-20T07:45:16;4.50;;;1.17;;
71629;SDS011;59479;51.902;8.212;2023-07-20T07:47:42;2.47;;;1.00;;
71629;SDS011;59479;51.902;8.212;2023-07-20T07:50:07;2.70;;;1.03;;
71629;SDS011;59479;51.902;8.212;2023-07-20T07:52:32;3.53;;;1.07;;
71629;SDS011;59479;51.902;8.212;2023-07-20T07:54:58;2.90;;;1.13;;
71629;SDS011;59479;51.902;8.212;2023-07-20T07:57:23;3.17;;;0.80;;
71629;SDS011;59479;51.902;8.212;2023-07-20T07:59:48;4.87;;;1.00;;
71629;SDS011;59479;51.902;8.212;2023-07-20T08:02:14;2.90;;;0.90;;
71629;SDS011;59479;51.902;8.212;2023-07-20T08:04:39;2.60;;;1.30;;
71629;SDS011;59479;51.902;8.212;2023-07-20T08:07:05;2.60;;;1.10;;
71629;SDS011;59479;51.902;8.212;2023-07-20T08:09:30;3.27;;;0.90;;
71629;SDS011;59479;51.902;8.212;2023-07-20T08:11:56;2.75;;;1.40;;
71629;SDS011;59479;51.902;8.212;2023-07-20T08:14:21;2.67;;;1.37;;
71629;SDS011;59479;51.902;8.212;2023-07-20T08:16:47;2.70;;;1.20;;
71629;SDS011;59479;51.902;8.212;2023-07-20T08:19:12;3.33;;;1.30;;
71629;SDS011;59479;51.902;8.212;2023-07-20T08:21:37;3.33;;;1.00;;
71629;SDS011;59479;51.902;8.212;2023-07-20T08:24:03;2.40;;;0.80;;
71629;SDS011;59479;51.902;8.212;2023-07-20T08:26:28;3.20;;;1.30;;
71629;SDS011;59479;51.902;8.212;2023-07-20T08:28:54;2.53;;;0.97;;
71629;SDS011;59479;51.902;8.212;2023-07-20T08:31:19;2.77;;;1.33;;
71629;SDS011;59479;51.902;8.212;2023-07-20T08:33:45;2.42;;;1.05;;
71629;SDS011;59479;51.902;8.212;2023-07-20T08:36:10;2.40;;;0.97;;
71629;SDS011;59479;51.902;8.212;2023-07-20T08:38:36;2.90;;;0.80;;
71629;SDS011;59479;51.902;8.212;2023-07-20T08:41:01;2.20;;;0.80;;
71629;SDS011;59479;51.902;8.212;2023-07-20T08:43:27;2.97;;;1.25;;
71629;SDS011;59479;51.902;8.212;2023-07-20T08:45:53;2.40;;;0.90;;
71629;SDS011;59479;51.902;8.212;2023-07-20T08:48:24;2.80;;;0.80;;
71629;SDS011;59479;51.902;8.212;2023-07-20T08:50:51;2.35;;;0.90;;
71629;SDS011;59479;51.902;8.212;2023-07-20T08:53:18;2.97;;;1.00;;
71629;SDS011;59479;51.902;8.212;2023-07-20T08:55:45;2.40;;;0.70;;
71629;SDS011;59479;51.902;8.212;2023-07-20T08:58:12;2.30;;;0.87;;
71629;SDS011;59479;51.902;8.212;2023-07-20T09:00:39;2.88;;;1.00;;
71629;SDS011;59479;51.902;8.212;2023-07-20T09:03:06;2.88;;;1.02;;
71629;SDS011;59479;51.902;8.212;2023-07-20T09:05:33;2.40;;;0.85;;
71629;SDS011;59479;51.902;8.212;2023-07-20T09:08:00;2.88;;;0.95;;
71629;SDS011;59479;51.902;8.212;2023-07-20T09:10:26;4.10;;;0.70;;
71629;SDS011;59479;51.902;8.212;2023-07-20T09:12:51;2.27;;;0.70;;
71629;SDS011;59479;51.902;8.212;2023-07-20T09:15:16;3.03;;;0.93;;
71629;SDS011;59479;51.902;8.212;2023-07-20T09:17:45;2.50;;;1.00;;
71629;SDS011;59479;51.902;8.212;2023-07-20T09:20:12;2.50;;;0.90;;
71629;SDS011;59479;51.902;8.212;2023-07-20T09:22:39;3.95;;;0.95;;
71629;SDS011;59479;51.902;8.212;2023-07-20T09:25:14;3.17;;;1.20;;
71629;SDS011;59479;51.902;8.212;2023-07-20T09:27:44;2.50;;;1.00;;
71629;SDS011;59479;51.902;8.212;2023-07-20T09:30:11;2.72;;;1.30;;
71629;SDS011;59479;51.902;8.212;2023-07-20T09:32:46;2.72;;;1.30;;
71629;SDS011;59479;51.902;8.212;2023-07-20T09:37:39;2.70;;;1.20;;
71629;SDS011;59479;51.902;8.212;2023-07-20T09:40:06;2.80;;;1.30;;
71629;SDS011;59479;51.902;8.212;2023-07-20T09:42:34;2.70;;;1.10;;
71629;SDS011;59479;51.902;8.212;2023-07-20T09:45:00;2.80;;;1.40;;
71629;SDS011;59479;51.902;8.212;2023-07-20T09:47:25;2.70;;;1.03;;
71629;SDS011;59479;51.902;8.212;2023-07-20T09:49:57;2.50;;;1.10;;
71629;SDS011;59479;51.902;8.212;2023-07-20T09:52:25;3.10;;;1.60;;
71629;SDS011;59479;51.902;8.212;2023-07-20T09:54:50;2.75;;;1.40;;
71629;SDS011;59479;51.902;8.212;2023-07-20T09:57:16;2.97;;;1.40;;
71629;SDS011;59479;51.902;8.212;2023-07-20T09:59:41;3.00;;;1.65;;
71629;SDS011;59479;51.902;8.212;2023-07-20T10:02:09;2.83;;;1.40;;
71629;SDS011;59479;51.902;8.212;2023-07-20T10:04:40;3.40;;;1.80;;
71629;SDS011;59479;51.902;8.212;2023-07-20T10:07:08;3.30;;;1.80;;
71629;SDS011;59479;51.902;8.212;2023-07-20T10:09:37;3.05;;;1.70;;
71629;SDS011;59479;51.902;8.212;2023-07-20T10:12:04;2.92;;;1.50;;
71629;SDS011;59479;51.902;8.212;2023-07-20T10:14:32;3.03;;;1.60;;
71629;SDS011;59479;51.902;8.212;2023-07-20T10:17:05;3.27;;;1.40;;
71629;SDS011;59479;51.902;8.212;2023-07-20T10:19:38;2.90;;;1.70;;
71629;SDS011;59479;51.902;8.212;2023-07-20T10:22:10;3.25;;;1.67;;
71629;SDS011;59479;51.902;8.212;2023-07-20T10:24:39;3.75;;;1.70;;
71629;SDS011;59479;51.902;8.212;2023-07-20T10:27:06;3.15;;;1.70;;
71629;SDS011;59479;51.902;8.212;2023-07-20T10:29:32;3.17;;;1.50;;
71629;SDS011;59479;51.902;8.212;2023-07-20T10:31:58;3.30;;;1.70;;
71629;SDS011;59479;51.902;8.212;2023-07-20T10:34:24;3.40;;;1.87;;
71629;SDS011;59479;51.902;8.212;2023-07-20T10:36:49;3.63;;;1.87;;
71629;SDS011;59479;51.902;8.212;2023-07-20T10:39:26;3.42;;;1.98;;
71629;SDS011;59479;51.902;8.212;2023-07-20T10:41:59;3.40;;;1.67;;
71629;SDS011;59479;51.902;8.212;2023-07-20T10:44:28;3.22;;;1.70;;
71629;SDS011;59479;51.902;8.212;2023-07-20T10:46:58;3.22;;;1.50;;
71629;SDS011;59479;51.902;8.212;2023-07-20T10:49:25;3.30;;;1.92;;
71629;SDS011;59479;51.902;8.212;2023-07-20T10:51:58;3.03;;;1.48;;
71629;SDS011;59479;51.902;8.212;2023-07-20T10:56:50;3.00;;;1.40;;
71629;SDS011;59479;51.902;8.212;2023-07-20T11:01:52;2.83;;;1.40;;
71629;SDS011;59479;51.902;8.212;2023-07-20T11:04:21;2.90;;;1.40;;
71629;SDS011;59479;51.902;8.212;2023-07-20T11:07:03;3.58;;;1.52;;
71629;SDS011;59479;51.902;8.212;2023-07-20T11:09:32;2.90;;;1.50;;
71629;SDS011;59479;51.902;8.212;2023-07-20T11:14:57;2.95;;;1.48;;
71629;SDS011;59479;51.902;8.212;2023-07-20T11:17:29;3.08;;;1.50;;
71629;SDS011;59479;51.902;8.212;2023-07-20T11:19:56;2.83;;;1.30;;
71629;SDS011;59479;51.902;8.212;2023-07-20T11:22:22;2.70;;;1.10;;
71629;SDS011;59479;51.902;8.212;2023-07-20T11:24:47;2.63;;;1.02;;
71629;SDS011;59479;51.902;8.212;2023-07-20T11:27:14;3.50;;;0.90;;
71629;SDS011;59479;51.902;8.212;2023-07-20T11:29:40;2.63;;;1.10;;
71629;SDS011;59479;51.902;8.212;2023-07-20T11:32:05;2.40;;;0.90;;
71629;SDS011;59479;51.902;8.212;2023-07-20T11:34:32;2.70;;;1.15;;
71629;SDS011;59479;51.902;8.212;2023-07-20T11:36:58;2.92;;;1.10;;
71629;SDS011;59479;51.902;8.212;2023-07-20T11:39:23;2.80;;;1.10;;
71629;SDS011;59479;51.902;8.212;2023-07-20T11:41:54;3.20;;;1.42;;
71629;SDS011;59479;51.902;8.212;2023-07-20T11:44:21;2.67;;;1.13;;
71629;SDS011;59479;51.902;8.212;2023-07-20T11:46:53;2.88;;;1.10;;
71629;SDS011;59479;51.902;8.212;2023-07-20T11:49:25;2.60;;;1.00;;
71629;SDS011;59479;51.902;8.212;2023-07-20T11:51:50;2.95;;;1.10;;
71629;SDS011;59479;51.902;8.212;2023-07-20T11:54:16;2.70;;;1.00;;
71629;SDS011;59479;51.902;8.212;2023-07-20T11:56:42;2.70;;;0.82;;
71629;SDS011;59479;51.902;8.212;2023-07-20T11:59:07;2.70;;;0.90;;
71629;SDS011;59479;51.902;8.212;2023-07-20T12:01:33;2.30;;;0.80;;
71629;SDS011;59479;51.902;8.212;2023-07-20T12:04:00;4.03;;;1.00;;
71629;SDS011;59479;51.902;8.212;2023-07-20T12:06:27;3.05;;;0.90;;
71629;SDS011;59479;51.902;8.212;2023-07-20T12:08:59;2.60;;;1.00;;
71629;SDS011;59479;51.902;8.212;2023-07-20T12:11:35;3.00;;;0.80;;
71629;SDS011;59479;51.902;8.212;2023-07-20T12:14:02;2.30;;;0.80;;
71629;SDS011;59479;51.902;8.212;2023-07-20T12:16:29;2.42;;;0.90;;
71629;SDS011;59479;51.902;8.212;2023-07-20T12:19:05;2.50;;;1.00;;
71629;SDS011;59479;51.902;8.212;2023-07-20T12:21:35;2.47;;;0.88;;
71629;SDS011;59479;51.902;8.212;2023-07-20T12:24:02;2.55;;;0.85;;
71629;SDS011;59479;51.902;8.212;2023-07-20T12:26:31;2.30;;;0.80;;
71629;SDS011;59479;51.902;8.212;2023-07-20T12:28:58;2.40;;;0.80;;
71629;SDS011;59479;51.902;8.212;2023-07-20T12:31:24;3.88;;;1.08;;
71629;SDS011;59479;51.902;8.212;2023-07-20T12:33:50;2.75;;;1.00;;
71629;SDS011;59479;51.902;8.212;2023-07-20T12:36:16;2.40;;;0.95;;
71629;SDS011;59479;51.902;8.212;2023-07-20T12:38:43;2.40;;;0.93;;
71629;SDS011;59479;51.902;8.212;2023-07-20T12:41:09;2.20;;;0.60;;
71629;SDS011;59479;51.902;8.212;2023-07-20T12:43:37;2.40;;;0.90;;
71629;SDS011;59479;51.902;8.212;2023-07-20T12:46:02;2.65;;;0.93;;
71629;SDS011;59479;51.902;8.212;2023-07-20T12:48:28;2.20;;;0.80;;
71629;SDS011;59479;51.902;8.212;2023-07-20T12:50:53;3.80;;;1.10;;
71629;SDS011;59479;51.902;8.212;2023-07-20T12:53:18;2.20;;;0.80;;
71629;SDS011;59479;51.902;8.212;2023-07-20T12:55:44;2.20;;;0.80;;
71629;SDS011;59479;51.902;8.212;2023-07-20T12:58:09;2.07;;;0.70;;
71629;SDS011;59479;51.902;8.212;2023-07-20T13:00:35;2.92;;;0.88;;
71629;SDS011;59479;51.902;8.212;2023-07-20T13:03:01;2.65;;;0.75;;
71629;SDS011;59479;51.902;8.212;2023-07-20T13:05:29;2.40;;;0.70;;
71629;SDS011;59479;51.902;8.212;2023-07-20T13:07:58;2.72;;;0.73;;
71629;SDS011;59479;51.902;8.212;2023-07-20T13:10:23;2.50;;;1.00;;
71629;SDS011;59479;51.902;8.212;2023-07-20T13:12:49;2.17;;;0.73;;
71629;SDS011;59479;51.902;8.212;2023-07-20T13:15:14;2.70;;;1.00;;
71629;SDS011;59479;51.902;8.212;2023-07-20T13:17:40;2.60;;;0.80;;
71629;SDS011;59479;51.902;8.212;2023-07-20T13:20:06;2.27;;;0.80;;
71629;SDS011;59479;51.902;8.212;2023-07-20T13:22:33;2.03;;;0.60;;
71629;SDS011;59479;51.902;8.212;2023-07-20T13:24:59;2.75;;;0.80;;
71629;SDS011;59479;51.902;8.212;2023-07-20T13:27:24;2.67;;;1.07;;
71629;SDS011;59479;51.902;8.212;2023-07-20T13:29:51;2.60;;;1.30;;
71629;SDS011;59479;51.902;8.212;2023-07-20T13:32:17;2.80;;;0.90;;
71629;SDS011;59479;51.902;8.212;2023-07-20T13:34:45;2.80;;;0.90;;
71629;SDS011;59479;51.902;8.212;2023-07-20T13:37:12;2.50;;;1.20;;
71629;SDS011;59479;51.902;8.212;2023-07-20T13:39:37;2.03;;;0.80;;
71629;SDS011;59479;51.902;8.212;2023-07-20T13:42:03;2.47;;;0.70;;
71629;SDS011;59479;51.902;8.212;2023-07-20T13:44:33;2.42;;;0.80;;
71629;SDS011;59479;51.902;8.212;2023-07-20T13:46:58;2.60;;;0.88;;
71629;SDS011;59479;51.902;8.212;2023-07-20T13:49:23;2.30;;;0.80;;
71629;SDS011;59479;51.902;8.212;2023-07-20T13:51:49;2.40;;;1.00;;
71629;SDS011;59479;51.902;8.212;2023-07-20T13:54:14;2.20;;;0.90;;
71629;SDS011;59479;51.902;8.212;2023-07-20T13:56:39;2.30;;;0.90;;
71629;SDS011;59479;51.902;8.212;2023-07-20T13:59:05;2.35;;;0.75;;
71629;SDS011;59479;51.902;8.212;2023-07-20T14:01:31;2.30;;;0.73;;
71629;SDS011;59479;51.902;8.212;2023-07-20T14:03:58;2.42;;;0.80;;
71629;SDS011;59479;51.902;8.212;2023-07-20T14:06:23;2.20;;;0.70;;
71629;SDS011;59479;51.902;8.212;2023-07-20T14:08:49;2.25;;;1.05;;
71629;SDS011;59479;51.902;8.212;2023-07-20T14:11:15;2.50;;;0.80;;
71629;SDS011;59479;51.902;8.212;2023-07-20T14:13:41;2.50;;;1.10;;
71629;SDS011;59479;51.902;8.212;2023-07-20T14:16:06;2.27;;;0.77;;
71629;SDS011;59479;51.902;8.212;2023-07-20T14:18:33;2.40;;;0.90;;
71629;SDS011;59479;51.902;8.212;2023-07-20T14:20:58;2.50;;;1.10;;
71629;SDS011;59479;51.902;8.212;2023-07-20T14:23:24;2.80;;;1.00;;
71629;SDS011;59479;51.902;8.212;2023-07-20T14:25:49;2.50;;;0.80;;
71629;SDS011;59479;51.902;8.212;2023-07-20T14:28:14;2.40;;;0.70;;
71629;SDS011;59479;51.902;8.212;2023-07-20T14:30:41;2.30;;;0.60;;
71629;SDS011;59479;51.902;8.212;2023-07-20T14:33:06;2.50;;;0.90;;
71629;SDS011;59479;51.902;8.212;2023-07-20T14:35:32;2.50;;;1.10;;
71629;SDS011;59479;51.902;8.212;2023-07-20T14:37:57;2.50;;;0.80;;
71629;SDS011;59479;51.902;8.212;2023-07-20T14:40:23;2.28;;;0.80;;
71629;SDS011;59479;51.902;8.212;2023-07-20T14:42:48;3.53;;;1.20;;
71629;SDS011;59479;51.902;8.212;2023-07-20T14:45:14;4.40;;;0.70;;
71629;SDS011;59479;51.902;8.212;2023-07-20T14:47:39;2.30;;;0.67;;
71629;SDS011;59479;51.902;8.212;2023-07-20T14:50:05;2.25;;;0.80;;
71629;SDS011;59479;51.902;8.212;2023-07-20T14:52:31;2.25;;;0.73;;
71629;SDS011;59479;51.902;8.212;2023-07-20T14:54:57;2.30;;;0.80;;
71629;SDS011;59479;51.902;8.212;2023-07-20T14:57:22;2.40;;;0.90;;
71629;SDS011;59479;51.902;8.212;2023-07-20T14:59:51;2.45;;;0.80;;
71629;SDS011;59479;51.902;8.212;2023-07-20T15:02:17;2.50;;;1.00;;
71629;SDS011;59479;51.902;8.212;2023-07-20T15:04:49;2.10;;;0.60;;